createdAt,value
2019-03-01T00:02:50.586Z,2.14
2019-03-01T00:07:56.583Z,2.46
2019-03-01T00:13:02.858Z,2.48
2019-03-01T00:18:08.945Z,2.68
2019-03-01T00:23:15.085Z,2.67
2019-03-01T00:28:21.075Z,2.66
2019-03-01T00:33:27.091Z,2.57
2019-03-01T00:38:33.271Z,2.77
2019-03-01T00:43:39.330Z,2.76
2019-03-01T00:48:45.378Z,4.62
2019-03-01T00:53:51.378Z,2.66
2019-03-01T00:58:57.390Z,4.51
2019-03-01T01:04:03.520Z,2.99
2019-03-01T01:09:09.522Z,5.44
2019-03-01T01:14:15.502Z,4.33
2019-03-01T01:19:21.492Z,4.48
2019-03-01T01:24:27.485Z,5.04
2019-03-01T01:29:33.498Z,4.81
2019-03-01T01:34:39.497Z,7.39
2019-03-01T01:39:45.512Z,4.87
2019-03-01T01:44:51.509Z,5.11
2019-03-01T01:49:57.497Z,6.81
2019-03-01T01:55:03.515Z,4.49
2019-03-01T02:00:09.573Z,5.29
2019-03-01T02:05:15.595Z,4.95
2019-03-01T02:10:21.563Z,7.11
2019-03-01T02:15:27.558Z,7.32
2019-03-01T02:20:33.695Z,4.82
2019-03-01T02:25:39.667Z,5.28
2019-03-01T02:30:45.678Z,5.40
2019-03-01T02:35:51.914Z,5.78
2019-03-01T02:40:58.219Z,5.47
2019-03-01T02:46:04.329Z,8.66
2019-03-01T02:51:10.369Z,6.08
2019-03-01T02:56:16.416Z,8.42
2019-03-01T03:01:22.454Z,5.66
2019-03-01T03:06:28.464Z,6.28
2019-03-01T03:11:34.501Z,6.14
2019-03-01T03:16:40.509Z,5.61
2019-03-01T03:21:46.556Z,6.59
2019-03-01T03:26:52.554Z,6.53
2019-03-01T03:31:58.647Z,6.39
2019-03-01T03:37:04.535Z,9.43
2019-03-01T03:42:10.496Z,8.61
2019-03-01T03:47:16.491Z,9.05
2019-03-01T03:52:22.489Z,6.12
2019-03-01T03:57:28.476Z,6.29
2019-03-01T04:02:34.479Z,5.52
2019-03-01T04:07:40.466Z,8.32
2019-03-01T04:12:46.567Z,8.82
2019-03-01T04:17:52.501Z,6.50
2019-03-01T04:22:58.489Z,9.61
2019-03-01T04:28:04.466Z,9.21
2019-03-01T04:33:10.440Z,6.65
2019-03-01T04:38:16.488Z,6.28
2019-03-01T04:43:22.513Z,8.83
2019-03-01T04:48:28.509Z,5.72
2019-03-01T04:53:34.622Z,3.96
2019-03-01T04:58:40.646Z,4.48
2019-03-01T05:03:46.680Z,3.38
2019-03-01T05:08:52.676Z,4.19
2019-03-01T05:13:58.690Z,4.71
2019-03-01T05:19:04.803Z,3.45
2019-03-01T05:24:10.816Z,3.92
2019-03-01T05:29:16.799Z,3.90
2019-03-01T05:34:22.939Z,3.89
2019-03-01T05:39:28.947Z,3.46
2019-03-01T05:44:34.984Z,3.71
2019-03-01T05:49:41.014Z,3.27
2019-03-01T05:54:47.010Z,5.07
2019-03-01T05:59:53.012Z,3.23
2019-03-01T06:04:59.162Z,2.91
2019-03-01T06:10:05.264Z,3.45
2019-03-01T06:15:11.345Z,3.76
2019-03-01T06:20:17.398Z,2.87
2019-03-01T06:25:24.224Z,3.11
2019-03-01T06:30:30.219Z,2.49
2019-03-01T06:35:36.196Z,3.39
2019-03-01T06:40:42.256Z,4.56
2019-03-01T06:45:48.277Z,3.37
2019-03-01T06:50:54.385Z,5.15
2019-03-01T06:56:00.418Z,6.03
2019-03-01T07:01:06.436Z,6.18
2019-03-01T07:06:12.559Z,7.41
2019-03-01T07:11:18.547Z,8.13
2019-03-01T07:16:24.576Z,7.99
2019-03-01T07:21:30.583Z,8.31
2019-03-01T07:26:36.788Z,8.53
2019-03-01T07:31:42.952Z,8.11
2019-03-01T07:36:48.944Z,11.45
2019-03-01T07:41:54.965Z,13.07
2019-03-01T07:47:01.014Z,20.81
2019-03-01T07:52:07.021Z,16.26
2019-03-01T07:57:14.764Z,13.96
2019-03-01T08:02:18.626Z,14.20
2019-03-01T08:07:24.639Z,20.82
2019-03-01T08:12:30.960Z,14.45
2019-03-01T08:17:36.849Z,16.41
2019-03-01T08:22:48.486Z,29.01
2019-03-01T08:27:50.333Z,23.21
2019-03-01T08:32:53.914Z,23.88
2019-03-01T08:37:59.939Z,25.51
2019-03-01T08:43:11.797Z,44.89
2019-03-01T08:48:11.529Z,31.71
2019-03-01T08:53:17.554Z,33.93
2019-03-01T08:58:23.534Z,51.85
2019-03-01T09:03:29.585Z,37.16
2019-03-01T09:08:35.676Z,55.77
2019-03-01T09:13:41.736Z,41.06
2019-03-01T09:18:50.021Z,40.52
2019-03-01T09:23:55.027Z,42.67
2019-03-01T09:28:58.939Z,41.42
2019-03-01T09:34:06.140Z,59.30
2019-03-01T09:39:10.418Z,39.91
2019-03-01T09:44:16.431Z,41.08
2019-03-01T09:49:24.412Z,62.69
2019-03-01T09:54:27.988Z,41.34
2019-03-01T09:59:33.984Z,41.48
2019-03-01T10:04:40.001Z,37.72
2019-03-01T10:09:46.024Z,37.28
2019-03-01T10:14:52.098Z,36.96
2019-03-01T10:19:58.115Z,38.48
2019-03-01T10:25:04.150Z,41.76
2019-03-01T10:30:10.141Z,42.50
2019-03-01T10:35:16.178Z,37.19
2019-03-01T10:40:22.212Z,27.57
2019-03-01T10:45:28.214Z,31.33
2019-03-01T10:50:34.227Z,42.68
2019-03-01T10:55:40.238Z,28.61
2019-03-01T11:00:46.258Z,42.91
2019-03-01T11:05:53.122Z,30.01
2019-03-01T11:10:59.186Z,30.55
2019-03-01T11:16:05.362Z,44.25
2019-03-01T11:21:11.409Z,42.01
2019-03-01T11:26:17.444Z,28.10
2019-03-01T11:31:24.191Z,27.87
2019-03-01T11:36:30.176Z,28.20
2019-03-01T11:41:36.250Z,37.53
2019-03-01T11:46:42.615Z,26.00
2019-03-01T11:51:48.670Z,24.93
2019-03-01T11:56:56.060Z,24.88
2019-03-01T12:02:02.195Z,22.55
2019-03-01T12:07:08.206Z,24.68
2019-03-01T12:12:14.894Z,24.87
2019-03-01T12:17:21.154Z,25.72
2019-03-01T12:22:27.180Z,24.52
2019-03-01T12:27:33.219Z,23.93
2019-03-01T12:32:39.225Z,24.16
2019-03-01T12:37:45.363Z,24.27
2019-03-01T12:42:51.387Z,24.93
2019-03-01T12:47:57.396Z,36.96
2019-03-01T12:53:03.410Z,26.44
2019-03-01T12:58:19.036Z,26.67
2019-03-01T13:03:15.126Z,27.44
2019-03-01T13:08:21.125Z,28.86
2019-03-01T13:13:27.129Z,30.55
2019-03-01T13:18:33.796Z,44.75
2019-03-01T13:23:40.505Z,30.89
2019-03-01T13:28:47.053Z,30.89
2019-03-01T13:33:50.962Z,45.45
2019-03-01T13:38:56.977Z,29.56
2019-03-01T13:44:04.113Z,43.36
2019-03-01T13:49:08.647Z,29.23
2019-03-01T13:54:14.726Z,33.52
2019-03-01T13:59:20.763Z,29.39
2019-03-01T14:04:27.155Z,39.32
2019-03-01T14:09:34.452Z,25.40
2019-03-01T14:14:38.741Z,33.13
2019-03-01T14:19:44.762Z,21.38
2019-03-01T14:24:50.752Z,25.96
2019-03-01T14:29:56.793Z,16.50
2019-03-01T14:35:02.810Z,14.95
2019-03-01T14:40:08.806Z,13.12
2019-03-01T14:45:16.301Z,13.27
2019-03-01T14:50:22.372Z,18.42
2019-03-01T14:55:28.368Z,13.37
2019-03-01T15:00:34.451Z,14.06
2019-03-01T15:05:41.952Z,14.20
2019-03-01T15:10:46.091Z,14.65
2019-03-01T15:15:52.152Z,18.00
2019-03-01T15:21:02.338Z,16.33
2019-03-01T15:26:03.720Z,18.01
2019-03-01T15:31:09.760Z,23.97
2019-03-01T15:36:17.804Z,18.95
2019-03-01T15:41:21.312Z,31.13
2019-03-01T15:46:27.357Z,28.35
2019-03-01T15:51:34.713Z,52.11
2019-03-01T15:56:39.566Z,59.31
2019-03-01T16:01:47.218Z,35.95
2019-03-01T16:06:55.209Z,38.39
2019-03-01T16:11:56.389Z,36.15
2019-03-01T16:17:01.292Z,19.61
2019-03-01T16:22:07.304Z,23.31
2019-03-01T16:27:15.261Z,13.67
2019-03-01T16:32:18.985Z,18.86
2019-03-01T16:37:26.085Z,19.43
2019-03-01T16:42:38.169Z,10.84
2019-03-01T16:47:38.301Z,16.33
2019-03-01T16:52:42.199Z,9.72
2019-03-01T16:57:48.698Z,11.50
2019-03-01T17:02:53.795Z,12.84
2019-03-01T17:08:04.969Z,21.10
2019-03-01T17:13:05.501Z,23.74
2019-03-01T17:18:12.388Z,16.57
2019-03-01T17:23:17.050Z,17.20
2019-03-01T17:28:26.491Z,16.38
2019-03-01T17:33:28.634Z,15.92
2019-03-01T17:38:34.770Z,16.16
2019-03-01T17:43:40.732Z,15.95
2019-03-01T17:48:46.729Z,16.72
2019-03-01T17:53:52.827Z,24.57
2019-03-01T17:58:58.875Z,16.33
2019-03-01T18:04:04.928Z,24.97
2019-03-01T18:09:13.311Z,16.47
2019-03-01T18:14:16.521Z,15.01
2019-03-01T18:19:23.784Z,14.18
2019-03-01T18:24:28.127Z,14.68
2019-03-01T18:29:34.149Z,21.89
2019-03-01T18:34:40.217Z,13.38
2019-03-01T18:39:46.395Z,12.87
2019-03-01T18:44:52.472Z,17.82
2019-03-01T18:49:58.653Z,13.60
2019-03-01T18:55:04.667Z,13.35
2019-03-01T19:00:10.739Z,19.53
2019-03-01T19:05:16.817Z,19.11
2019-03-01T19:10:23.973Z,21.80
2019-03-01T19:15:28.833Z,14.14
2019-03-01T19:20:37.966Z,12.96
2019-03-01T19:25:40.632Z,12.96
2019-03-01T19:30:49.038Z,11.60
2019-03-01T19:35:52.474Z,12.09
2019-03-01T19:40:58.570Z,13.43
2019-03-01T19:46:04.633Z,16.66
2019-03-01T19:51:10.683Z,14.38
2019-03-01T19:56:18.948Z,23.29
2019-03-01T20:01:23.013Z,14.96
2019-03-01T20:06:29.070Z,13.21
2019-03-01T20:11:35.267Z,13.23
2019-03-01T20:16:42.582Z,20.88
2019-03-01T20:21:49.281Z,20.67
2019-03-01T20:26:56.675Z,21.08
2019-03-01T20:32:00.960Z,22.64
2019-03-01T20:37:06.965Z,14.85
2019-03-01T20:42:13.038Z,15.19
2019-03-01T20:47:19.462Z,15.54
2019-03-01T20:52:25.361Z,16.60
2019-03-01T20:57:31.406Z,17.03
2019-03-01T21:02:39.485Z,16.83
2019-03-01T21:07:47.811Z,24.68
2019-03-01T21:12:51.357Z,16.99
2019-03-01T21:17:58.696Z,18.22
2019-03-01T21:23:02.923Z,26.45
2019-03-01T21:28:09.142Z,16.15
2019-03-01T21:33:15.257Z,24.65
2019-03-01T21:38:21.490Z,15.26
2019-03-01T21:43:30.631Z,15.94
2019-03-01T21:48:33.172Z,16.18
2019-03-01T21:53:39.798Z,15.28
2019-03-01T21:58:44.901Z,14.45
2019-03-01T22:03:51.075Z,14.73
2019-03-01T22:08:57.130Z,14.27
2019-03-01T22:14:03.240Z,20.77
2019-03-01T22:19:09.479Z,13.25
2019-03-01T22:24:15.478Z,20.20
2019-03-01T22:29:21.580Z,12.57
2019-03-01T22:34:31.153Z,12.28
2019-03-01T22:39:33.230Z,11.61
2019-03-01T22:44:39.270Z,10.39
2019-03-01T22:49:45.348Z,10.49
2019-03-01T22:54:51.392Z,8.44
2019-03-01T22:59:57.395Z,10.90
2019-03-01T23:05:03.849Z,7.13
2019-03-01T23:10:09.133Z,12.86
2019-03-01T23:15:15.235Z,9.20
2019-03-01T23:20:26.303Z,10.19
2019-03-01T23:25:26.826Z,10.91
2019-03-01T23:30:32.877Z,17.47
2019-03-01T23:35:38.880Z,12.08
2019-03-01T23:40:44.932Z,12.95
2019-03-01T23:45:53.775Z,18.93
2019-03-01T23:50:57.804Z,12.77
2019-03-01T23:56:03.888Z,19.12
